Time;durP1;ratioP1;P1;durP2;ratioP2;P2;SDS_P1;SDS_P2;PMS_P1;PMS_P2;Temp;Humidity;BMP_temperature;BMP_pressure;BME280_temperature;BME280_humidity;BME280_pressure;Samples;Min_cycle;Max_cycle;Signal;HPM_P1;HPM_P2
2024/01/30 00:03:13;;;;;;;9.70;5.88;;;16.30;99.90;;;;;;10420184;28;20060;-62
2024/01/30 00:08:15;;;;;;;7.60;5.35;;;16.40;99.90;;;;;;10426858;28;20119;-57
2024/01/30 00:13:19;;;;;;;12.48;6.57;;;16.50;99.90;;;;;;10428958;28;20086;-57
2024/01/30 00:18:22;;;;;;;9.98;5.63;;;16.50;99.90;;;;;;10427320;28;20286;-56
2024/01/30 00:23:24;;;;;;;9.00;5.93;;;16.60;99.90;;;;;;10428644;28;20683;-57
2024/01/30 00:28:26;;;;;;;9.97;6.23;;;16.20;99.90;;;;;;10427806;28;20067;-58
2024/01/30 00:33:29;;;;;;;9.33;6.83;;;15.90;99.90;;;;;;10431316;28;20494;-57
2024/01/30 00:38:31;;;;;;;13.45;6.22;;;15.80;99.90;;;;;;10438246;28;20040;-57
2024/01/30 00:43:33;;;;;;;13.77;6.53;;;15.30;99.90;;;;;;10439522;28;20395;-58
2024/01/30 00:48:37;;;;;;;8.80;5.33;;;15.70;99.90;;;;;;10435821;28;20040;-58
2024/01/30 00:53:39;;;;;;;9.65;5.78;;;15.50;99.90;;;;;;10438819;28;20057;-59
2024/01/30 00:58:41;;;;;;;8.27;5.30;;;15.00;99.90;;;;;;10441712;28;20080;-60
2024/01/30 01:03:44;;;;;;;8.60;6.13;;;15.60;99.90;;;;;;10440733;28;20052;-58
2024/01/30 01:08:46;;;;;;;10.35;5.95;;;15.50;99.90;;;;;;10438145;28;20227;-58
2024/01/30 01:13:48;;;;;;;7.40;4.83;;;15.30;99.90;;;;;;10445503;28;20060;-58
2024/01/30 01:18:51;;;;;;;11.43;6.28;;;15.70;99.90;;;;;;10436635;28;20134;-58
2024/01/30 01:23:54;;;;;;;8.10;4.55;;;16.10;99.90;;;;;;10426582;28;20885;-57
2024/01/30 01:28:56;;;;;;;9.07;6.53;;;15.90;99.90;;;;;;10438799;28;20051;-57
2024/01/30 01:33:59;;;;;;;8.80;5.43;;;15.50;99.90;;;;;;10434379;28;20065;-58
2024/01/30 01:39:01;;;;;;;10.38;5.90;;;15.50;99.90;;;;;;10433927;28;20622;-58
2024/01/30 01:44:03;;;;;;;11.37;5.43;;;15.70;99.90;;;;;;10432554;28;20087;-55
2024/01/30 01:49:07;;;;;;;7.77;5.37;;;15.50;99.90;;;;;;10431285;28;20126;-58
2024/01/30 01:54:10;;;;;;;10.32;5.60;;;15.50;99.90;;;;;;10434219;28;20182;-55
2024/01/30 01:59:12;;;;;;;15.25;6.07;;;15.50;99.90;;;;;;10436361;28;20179;-57
2024/01/30 02:04:15;;;;;;;12.27;5.50;;;15.60;99.90;;;;;;10436454;28;20102;-57
2024/01/30 02:09:17;;;;;;;13.52;5.68;;;15.60;99.90;;;;;;10433285;28;20093;-59
2024/01/30 02:14:19;;;;;;;12.23;6.87;;;15.50;99.90;;;;;;10429822;28;21127;-55
2024/01/30 02:19:22;;;;;;;7.70;5.23;;;15.50;99.90;;;;;;10431572;28;20138;-58
2024/01/30 02:24:25;;;;;;;7.35;5.43;;;15.30;99.90;;;;;;10436540;28;20148;-58
2024/01/30 02:29:27;;;;;;;12.35;6.30;;;15.00;99.90;;;;;;10441127;28;20162;-58
2024/01/30 02:34:29;;;;;;;8.33;4.97;;;15.20;99.90;;;;;;10437528;28;20052;-59
2024/01/30 02:39:33;;;;;;;9.07;5.60;;;15.80;99.90;;;;;;10443750;28;20054;-57
2024/01/30 02:44:35;;;;;;;13.02;6.75;;;15.90;99.90;;;;;;10437764;28;20176;-59
2024/01/30 02:49:37;;;;;;;9.23;6.05;;;15.70;99.90;;;;;;10430325;28;20044;-58
2024/01/30 02:54:40;;;;;;;14.90;7.20;;;15.60;99.90;;;;;;10431372;28;20674;-56
2024/01/30 02:59:42;;;;;;;8.52;6.05;;;15.60;99.90;;;;;;10425206;28;20064;-57
2024/01/30 03:04:44;;;;;;;10.47;5.90;;;15.70;99.90;;;;;;10425266;28;20072;-59
2024/01/30 03:09:48;;;;;;;14.27;6.32;;;15.10;99.90;;;;;;10440698;28;20151;-59
2024/01/30 03:14:50;;;;;;;12.70;6.40;;;15.30;99.90;;;;;;10435021;28;20151;-59
2024/01/30 03:19:52;;;;;;;16.65;5.70;;;15.50;99.90;;;;;;10429443;28;20667;-58
2024/01/30 03:24:55;;;;;;;10.43;5.82;;;15.40;99.90;;;;;;10426975;28;20515;-57
2024/01/30 03:29:57;;;;;;;12.02;5.68;;;15.40;99.90;;;;;;10427905;28;20053;-58
2024/01/30 03:35:00;;;;;;;13.23;6.07;;;15.20;99.90;;;;;;10423340;28;20175;-58
2024/01/30 03:40:04;;;;;;;11.10;6.38;;;15.30;99.90;;;;;;10425341;28;23256;-57
2024/01/30 03:45:08;;;;;;;7.60;6.30;;;15.20;99.90;;;;;;10417003;28;20059;-60
2024/01/30 03:50:10;;;;;;;11.90;6.93;;;15.20;99.90;;;;;;10428539;28;20040;-59
2024/01/30 03:55:14;;;;;;;10.30;5.93;;;15.30;99.90;;;;;;10431969;28;20381;-62
2024/01/30 04:00:16;;;;;;;11.68;7.13;;;15.80;99.90;;;;;;10424669;28;20064;-58
2024/01/30 04:05:18;;;;;;;12.93;5.43;;;15.30;99.90;;;;;;10423264;28;20834;-59
2024/01/30 04:15:32;;;;;;;8.95;5.85;;;15.40;99.90;;;;;;10502123;27;21607;-58
2024/01/30 04:20:34;;;;;;;19.02;6.47;;;15.70;99.90;;;;;;10513305;28;20049;-59
2024/01/30 04:25:36;;;;;;;14.07;6.43;;;15.40;99.90;;;;;;10520692;28;20106;-57
2024/01/30 04:30:40;;;;;;;12.35;6.10;;;15.10;99.90;;;;;;10509981;28;20071;-58
2024/01/30 04:35:42;;;;;;;9.82;5.25;;;15.40;99.90;;;;;;10517401;28;20051;-56
2024/01/30 04:40:44;;;;;;;10.32;5.38;;;15.60;99.90;;;;;;10515937;28;20044;-58
2024/01/30 04:45:48;;;;;;;10.65;6.50;;;15.00;99.90;;;;;;10508617;28;20044;-60
2024/01/30 04:50:50;;;;;;;10.43;6.13;;;14.80;99.90;;;;;;10506428;28;20511;-59
2024/01/30 04:55:52;;;;;;;10.27;6.43;;;14.60;99.90;;;;;;10503281;28;20063;-59
2024/01/30 05:00:57;;;;;;;9.53;5.23;;;14.50;99.90;;;;;;10507950;28;20062;-59
2024/01/30 05:05:59;;;;;;;8.30;6.03;;;15.00;99.90;;;;;;10518302;28;20051;-58
2024/01/30 05:11:03;;;;;;;12.40;6.70;;;15.20;99.90;;;;;;10510664;28;20059;-59
2024/01/30 05:16:07;;;;;;;8.70;5.63;;;15.10;99.90;;;;;;10503027;28;20072;-59
2024/01/30 05:21:09;;;;;;;10.55;5.68;;;15.40;99.90;;;;;;10513639;28;20499;-57
2024/01/30 05:26:11;;;;;;;10.20;4.97;;;15.40;99.90;;;;;;10490832;28;20418;-57
2024/01/30 05:31:14;;;;;;;8.83;5.20;;;16.00;99.90;;;;;;10473285;28;20056;-59
2024/01/30 05:36:16;;;;;;;13.25;6.18;;;16.20;99.90;;;;;;10480105;28;20469;-55
2024/01/30 05:41:18;;;;;;;14.60;5.67;;;16.40;99.90;;;;;;10482822;28;20044;-58
2024/01/30 05:46:21;;;;;;;10.45;5.82;;;16.40;99.90;;;;;;10480625;28;20059;-59
2024/01/30 05:51:23;;;;;;;7.65;5.20;;;16.50;99.90;;;;;;10448584;28;20060;-56
2024/01/30 05:56:25;;;;;;;12.00;4.93;;;16.50;99.90;;;;;;10467794;28;20056;-58
2024/01/30 06:01:29;;;;;;;9.93;5.60;;;16.60;99.90;;;;;;10467939;28;20042;-57
2024/01/30 06:06:31;;;;;;;17.33;4.93;;;16.30;99.90;;;;;;10475181;28;21359;-58
2024/01/30 06:11:33;;;;;;;8.83;5.00;;;16.50;99.90;;;;;;10467345;28;20053;-58
2024/01/30 06:16:36;;;;;;;9.23;5.18;;;15.90;99.90;;;;;;10467169;28;20053;-58
2024/01/30 06:21:38;;;;;;;10.43;5.95;;;16.10;99.90;;;;;;10465217;28;20738;-58
2024/01/30 06:26:41;;;;;;;14.33;6.07;;;16.10;99.90;;;;;;10463568;28;20041;-57
2024/01/30 06:31:44;;;;;;;14.25;6.03;;;15.80;99.90;;;;;;10459704;28;20047;-57
2024/01/30 06:36:46;;;;;;;10.57;7.25;;;15.70;99.90;;;;;;10471567;28;20044;-58
2024/01/30 06:41:48;;;;;;;8.30;5.73;;;15.60;99.90;;;;;;10477529;28;20051;-56
2024/01/30 06:46:51;;;;;;;7.97;5.53;;;15.60;99.90;;;;;;10480657;28;20052;-56
2024/01/30 06:51:53;;;;;;;10.68;5.55;;;15.70;99.90;;;;;;10466587;28;20048;-59
2024/01/30 06:56:55;;;;;;;11.83;5.47;;;16.40;99.90;;;;;;10474640;28;20401;-58
2024/01/30 07:01:58;;;;;;;14.63;5.97;;;16.00;99.90;;;;;;10473212;28;20091;-58
2024/01/30 07:07:00;;;;;;;10.57;5.63;;;16.20;99.90;;;;;;10469982;28;20059;-58
2024/01/30 07:12:03;;;;;;;12.70;4.60;;;15.90;99.90;;;;;;10469243;28;20053;-58
2024/01/30 07:17:07;;;;;;;12.65;5.55;;;15.90;99.90;;;;;;10476845;28;20055;-58
2024/01/30 07:22:09;;;;;;;13.38;7.03;;;15.50;99.90;;;;;;10476044;28;20471;-57
2024/01/30 07:27:11;;;;;;;18.00;8.47;;;13.90;99.90;;;;;;10473939;28;20083;-58
2024/01/30 07:32:14;;;;;;;25.63;8.43;;;14.00;99.90;;;;;;10478342;28;20044;-56
2024/01/30 07:37:16;;;;;;;14.77;9.18;;;12.60;99.90;;;;;;10466064;28;20056;-58
2024/01/30 07:42:18;;;;;;;17.40;8.80;;;12.40;99.90;;;;;;10458811;28;20507;-59
2024/01/30 07:47:22;;;;;;;25.08;10.63;;;12.30;99.90;;;;;;10453831;28;20043;-58
2024/01/30 07:52:24;;;;;;;24.20;9.73;;;12.10;99.90;;;;;;10463003;28;20514;-57
2024/01/30 07:57:26;;;;;;;20.00;7.03;;;12.00;99.90;;;;;;10461546;28;20048;-58
2024/01/30 08:02:29;;;;;;;18.77;8.70;;;12.10;99.90;;;;;;10455677;28;20045;-58
2024/01/30 08:07:31;;;;;;;26.75;10.27;;;12.00;99.90;;;;;;10459409;28;20062;-56
2024/01/30 08:12:33;;;;;;;24.75;11.00;;;11.70;99.90;;;;;;10455299;28;20052;-57
2024/01/30 08:17:37;;;;;;;16.60;9.25;;;11.50;99.90;;;;;;10466254;28;20095;-58
2024/01/30 08:22:40;;;;;;;23.90;11.85;;;11.60;99.90;;;;;;10462687;28;20045;-57
2024/01/30 08:27:41;;;;;;;;;;;11.60;99.90;;;;;;10466666;28;20657;-56
2024/01/30 08:32:45;;;;;;;25.35;11.52;;;12.00;99.90;;;;;;10453054;28;20410;-57
2024/01/30 08:37:47;;;;;;;22.67;9.40;;;11.60;99.90;;;;;;10455847;28;20123;-59
2024/01/30 08:42:49;;;;;;;21.20;12.38;;;11.90;99.90;;;;;;10447068;28;20451;-58
2024/01/30 08:47:53;;;;;;;17.73;9.53;;;11.70;99.90;;;;;;10464122;28;20715;-58
2024/01/30 08:52:55;;;;;;;11.27;5.82;;;11.40;99.90;;;;;;10465320;28;20419;-57
2024/01/30 08:57:57;;;;;;;26.45;10.02;;;12.00;99.90;;;;;;10459058;28;20129;-58
2024/01/30 09:03:00;;;;;;;31.58;10.65;;;11.70;99.90;;;;;;10471737;28;20120;-56
2024/01/30 09:08:02;;;;;;;21.90;7.88;;;11.50;99.90;;;;;;10471758;28;20078;-57
2024/01/30 09:13:04;;;;;;;28.42;7.65;;;10.90;99.90;;;;;;10472665;28;20052;-55
2024/01/30 09:18:08;;;;;;;25.13;4.68;;;10.40;99.90;;;;;;10462110;28;20466;-56
2024/01/30 09:23:10;;;;;;;27.45;4.07;;;10.30;99.90;;;;;;10472095;28;20056;-57
2024/01/30 09:28:12;;;;;;;21.93;3.67;;;10.40;99.90;;;;;;10475335;28;20048;-57
2024/01/30 09:33:16;;;;;;;11.73;2.42;;;10.50;99.90;;;;;;10473337;28;20048;-56
2024/01/30 09:38:18;;;;;;;16.88;3.35;;;10.60;99.90;;;;;;10480640;28;20136;-56
2024/01/30 09:43:24;;;;;;;12.40;2.13;;;10.40;99.90;;;;;;10478567;28;20491;-56
2024/01/30 09:48:28;;;;;;;10.60;2.08;;;10.30;99.90;;;;;;10478163;28;20404;-58
2024/01/30 09:53:30;;;;;;;11.25;2.53;;;10.60;99.90;;;;;;10476782;28;21242;-58
2024/01/30 09:58:32;;;;;;;16.42;2.47;;;10.10;99.90;;;;;;10484381;28;20048;-59
2024/01/30 10:03:35;;;;;;;20.88;3.28;;;10.20;99.90;;;;;;10480911;28;20089;-59
2024/01/30 10:08:37;;;;;;;15.77;2.53;;;10.00;99.90;;;;;;10471691;28;20053;-59
2024/01/30 10:13:40;;;;;;;14.97;2.43;;;9.90;99.90;;;;;;10465348;28;20142;-55
2024/01/30 10:18:43;;;;;;;19.65;2.55;;;9.70;99.90;;;;;;10469406;28;20056;-53
2024/01/30 10:23:45;;;;;;;18.20;2.55;;;9.80;99.90;;;;;;10473868;28;20056;-57
2024/01/30 10:28:48;;;;;;;14.32;2.22;;;9.70;99.90;;;;;;10466253;28;20056;-58
2024/01/30 10:33:52;;;;;;;18.60;2.10;;;9.60;99.90;;;;;;10466608;28;20041;-58
2024/01/30 10:38:59;;;;;;;17.83;2.83;;;9.50;99.90;;;;;;10466598;28;20179;-57
2024/01/30 10:44:09;;;;;;;27.73;4.10;;;9.60;99.90;;;;;;10466893;28;20057;-56
2024/01/30 10:49:13;;;;;;;27.02;4.47;;;8.90;99.90;;;;;;10461301;28;20599;-57
2024/01/30 10:54:17;;;;;;;24.83;3.22;;;8.80;99.90;;;;;;10458319;28;20222;-58
2024/01/30 10:59:19;;;;;;;24.25;4.28;;;8.90;99.90;;;;;;10463298;28;20071;-58
2024/01/30 11:04:23;;;;;;;24.63;3.67;;;8.80;99.90;;;;;;10461785;28;20114;-57
2024/01/30 11:09:25;;;;;;;23.95;3.90;;;9.10;99.90;;;;;;10467143;28;21005;-57
2024/01/30 11:14:27;;;;;;;26.90;2.88;;;9.00;99.90;;;;;;10466175;28;20055;-57
2024/01/30 11:19:33;;;;;;;16.27;1.90;;;9.20;99.90;;;;;;10464092;28;20301;-57
2024/01/30 11:24:41;;;;;;;20.92;3.42;;;9.40;99.90;;;;;;10452729;28;20077;-57
2024/01/30 11:29:43;;;;;;;21.98;3.40;;;9.70;99.90;;;;;;10453636;28;20119;-57
2024/01/30 11:34:46;;;;;;;15.38;3.78;;;9.40;99.90;;;;;;10471544;28;20147;-57
2024/01/30 11:39:49;;;;;;;12.18;3.42;;;9.40;99.90;;;;;;10466478;28;20132;-57
2024/01/30 11:44:51;;;;;;;9.02;2.17;;;9.50;99.90;;;;;;10466274;28;20040;-57
2024/01/30 11:49:55;;;;;;;13.10;2.20;;;9.60;99.90;;;;;;10467768;28;20738;-57
2024/01/30 11:54:57;;;;;;;15.98;2.90;;;9.40;99.90;;;;;;10464436;28;20106;-57
2024/01/30 11:59:59;;;;;;;10.83;3.07;;;9.40;99.90;;;;;;10456894;28;20569;-57
2024/01/30 12:05:06;;;;;;;12.77;2.78;;;9.60;99.90;;;;;;10463968;28;20060;-57
2024/01/30 12:10:11;;;;;;;28.15;4.65;;;9.70;99.90;;;;;;10458510;28;20049;-59
2024/01/30 12:15:14;;;;;;;21.50;3.97;;;9.70;99.90;;;;;;10458396;28;20049;-57
2024/01/30 12:20:21;;;;;;;33.80;3.22;;;9.80;99.90;;;;;;10463637;28;20511;-58
2024/01/30 12:25:23;;;;;;;22.90;3.63;;;9.50;99.90;;;;;;10464494;28;20040;-55
2024/01/30 12:30:25;;;;;;;23.63;3.10;;;9.80;99.90;;;;;;10452488;28;20069;-57
2024/01/30 12:35:29;;;;;;;19.30;2.47;;;9.70;99.90;;;;;;10466038;28;20569;-58
2024/01/30 12:40:34;;;;;;;28.50;3.25;;;10.00;99.90;;;;;;10477559;28;20050;-57
2024/01/30 12:45:37;;;;;;;32.15;4.97;;;9.20;99.90;;;;;;10458253;28;20043;-57
2024/01/30 12:50:40;;;;;;;27.73;4.53;;;9.00;99.90;;;;;;10458544;28;20048;-57
2024/01/30 12:55:42;;;;;;;9.90;2.30;;;9.40;99.90;;;;;;10464610;28;20142;-58
2024/01/30 13:00:45;;;;;;;0.10;0.10;;;9.30;99.90;;;;;;10469099;28;20052;-57
2024/01/30 13:05:48;;;;;;;0.10;0.10;;;9.20;99.90;;;;;;10467098;28;20059;-57
2024/01/30 13:10:50;;;;;;;0.10;0.10;;;9.30;99.90;;;;;;10472598;28;20074;-56
2024/01/30 13:15:52;;;;;;;0.20;0.20;;;9.40;99.90;;;;;;10469492;28;20059;-58
2024/01/30 13:20:55;;;;;;;0.40;0.40;;;9.10;99.90;;;;;;10467520;28;20064;-58
2024/01/30 13:25:58;;;;;;;0.20;0.20;;;9.10;99.90;;;;;;10468234;28;20049;-58
2024/01/30 13:31:00;;;;;;;0.93;0.70;;;9.40;99.90;;;;;;10466291;28;20702;-57
2024/01/30 13:36:04;;;;;;;0.10;0.10;;;9.10;99.90;;;;;;10469908;28;20423;-55
2024/01/30 13:41:06;;;;;;;0.10;0.10;;;9.20;99.90;;;;;;10463579;28;20805;-57
2024/01/30 13:46:10;;;;;;;0.10;0.10;;;9.20;99.90;;;;;;10465027;28;20053;-56
2024/01/30 13:51:13;;;;;;;0.63;0.63;;;9.00;99.90;;;;;;10478990;28;20063;-57
2024/01/30 13:56:15;;;;;;;0.30;0.30;;;9.20;99.90;;;;;;10466304;28;20595;-56
2024/01/30 14:01:20;;;;;;;0.10;0.10;;;9.20;99.90;;;;;;10471513;28;20044;-58
2024/01/30 14:06:24;;;;;;;0.52;0.52;;;9.40;99.90;;;;;;10469936;28;20059;-57
2024/01/30 14:11:26;;;;;;;0.10;0.10;;;9.30;99.90;;;;;;10474625;28;20534;-56
2024/01/30 14:16:30;;;;;;;0.52;0.52;;;9.30;99.90;;;;;;10470798;28;20052;-57
2024/01/30 14:21:35;;;;;;;0.13;0.13;;;9.00;99.90;;;;;;10468839;28;20085;-58
2024/01/30 14:26:37;;;;;;;0.50;0.50;;;9.40;99.90;;;;;;10466665;28;20074;-57
2024/01/30 14:31:39;;;;;;;0.13;0.13;;;9.20;99.90;;;;;;10474647;28;20059;-57
2024/01/30 14:36:42;;;;;;;0.20;0.20;;;9.50;99.90;;;;;;10468184;28;20840;-58
2024/01/30 14:41:44;;;;;;;0.95;0.95;;;8.90;99.90;;;;;;10464723;28;20056;-58
2024/01/30 14:46:46;;;;;;;0.20;0.20;;;9.00;99.90;;;;;;10464956;28;20135;-58
2024/01/30 14:51:50;;;;;;;0.10;0.10;;;8.70;99.90;;;;;;10459402;28;20414;-58
2024/01/30 14:56:52;;;;;;;0.15;0.15;;;8.70;99.90;;;;;;10460091;28;20064;-55
2024/01/30 15:01:54;;;;;;;0.38;0.38;;;9.30;99.90;;;;;;10456575;28;20632;-59
2024/01/30 15:06:57;;;;;;;0.60;0.60;;;9.30;99.90;;;;;;10462884;28;20071;-56
2024/01/30 15:11:59;;;;;;;0.10;0.10;;;9.10;99.90;;;;;;10464135;28;20068;-56
2024/01/30 15:17:02;;;;;;;0.10;0.10;;;8.70;99.90;;;;;;10471989;28;20040;-54
2024/01/30 15:22:05;;;;;;;0.47;0.47;;;9.10;99.90;;;;;;10468130;28;20056;-55
2024/01/30 15:27:08;;;;;;;0.20;0.20;;;9.00;99.90;;;;;;10467257;28;20055;-57
2024/01/30 15:32:10;;;;;;;1.30;1.27;;;9.00;99.90;;;;;;10466552;28;20040;-58
2024/01/30 15:37:13;;;;;;;0.10;0.10;;;8.60;99.90;;;;;;10464661;28;20053;-57
2024/01/30 15:42:16;;;;;;;0.15;0.15;;;9.10;99.90;;;;;;10464560;28;20048;-57
2024/01/30 15:47:18;;;;;;;0.10;0.10;;;8.90;99.90;;;;;;10469408;28;20059;-57
2024/01/30 15:52:21;;;;;;;0.20;0.20;;;8.90;99.90;;;;;;10463422;28;20059;-60
2024/01/30 15:57:23;;;;;;;;;;;9.60;99.90;;;;;;10465851;28;20052;-58
2024/01/30 16:02:26;;;;;;;0.30;0.30;;;9.40;99.90;;;;;;10467557;28;19959;-57
2024/01/30 16:07:31;;;;;;;0.45;0.45;;;8.90;99.90;;;;;;10473345;28;20037;-64
2024/01/30 16:12:33;;;;;;;0.13;0.13;;;9.10;99.90;;;;;;10466555;28;20475;-59
2024/01/30 16:17:34;;;;;;;0.13;0.13;;;9.90;99.90;;;;;;10465604;28;20428;-56
2024/01/30 16:22:38;;;;;;;0.20;0.20;;;9.50;99.90;;;;;;10460502;28;20690;-58
2024/01/30 16:27:40;;;;;;;2.45;2.05;;;9.40;99.90;;;;;;10468310;28;20683;-57
2024/01/30 16:32:42;;;;;;;0.10;0.10;;;10.30;99.90;;;;;;10472058;28;20063;-59
2024/01/30 16:37:45;;;;;;;0.20;0.20;;;9.30;99.90;;;;;;10477762;28;20040;-58
2024/01/30 16:42:47;;;;;;;0.10;0.10;;;10.70;99.90;;;;;;10473846;28;20056;-57
2024/01/30 16:47:50;;;;;;;0.20;0.20;;;10.40;99.90;;;;;;10474991;28;20049;-57
2024/01/30 16:52:53;;;;;;;0.10;0.10;;;9.60;99.90;;;;;;10468071;28;20063;-59
2024/01/30 16:57:55;;;;;;;6.20;1.27;;;10.00;99.90;;;;;;10465136;28;20052;-57
2024/01/30 17:02:57;;;;;;;0.10;0.10;;;9.10;99.90;;;;;;10467078;28;20052;-56
2024/01/30 17:08:01;;;;;;;0.20;0.20;;;9.20;99.90;;;;;;10469377;28;20067;-57
2024/01/30 17:13:03;;;;;;;0.10;0.10;;;10.00;99.90;;;;;;10466081;28;20738;-55
2024/01/30 17:18:05;;;;;;;0.10;0.10;;;10.70;99.90;;;;;;10460079;28;21247;-56
2024/01/30 17:23:10;;;;;;;0.10;0.10;;;11.60;99.90;;;;;;10446225;28;20063;-57
2024/01/30 17:28:13;;;;;;;0.10;0.10;;;10.30;99.90;;;;;;10458158;28;20472;-58
2024/01/30 17:33:15;;;;;;;0.10;0.10;;;10.90;99.90;;;;;;10466235;28;20055;-58
2024/01/30 17:38:18;;;;;;;0.10;0.10;;;11.00;99.90;;;;;;10461567;28;20455;-59
2024/01/30 17:43:20;;;;;;;0.10;0.10;;;10.70;99.90;;;;;;10466390;28;20052;-58
2024/01/30 17:48:22;;;;;;;0.57;0.57;;;10.40;99.90;;;;;;10467461;28;20495;-58
2024/01/30 17:53:26;;;;;;;0.17;0.17;;;10.20;99.90;;;;;;10475077;28;20052;-57
2024/01/30 17:58:28;;;;;;;0.30;0.30;;;10.30;99.90;;;;;;10477728;28;20075;-57
2024/01/30 18:03:30;;;;;;;0.73;0.67;;;9.60;99.90;;;;;;10477647;28;20051;-58
2024/01/30 18:08:34;;;;;;;0.25;0.25;;;9.10;99.90;;;;;;10470595;28;20312;-57
2024/01/30 18:13:36;;;;;;;0.47;0.47;;;9.30;99.90;;;;;;10463776;28;20516;-58
2024/01/30 18:18:38;;;;;;;0.10;0.10;;;8.80;99.90;;;;;;10466186;28;20747;-58
2024/01/30 18:23:42;;;;;;;0.83;0.83;;;8.70;99.90;;;;;;10471391;28;20064;-57
2024/01/30 18:28:44;;;;;;;0.20;0.20;;;8.50;99.90;;;;;;10462233;28;20070;-57
2024/01/30 18:33:50;;;;;;;0.37;0.37;;;8.80;99.90;;;;;;10465861;28;20092;-57
2024/01/30 18:38:57;;;;;;;0.13;0.13;;;8.90;99.90;;;;;;10475039;28;20072;-56
2024/01/30 18:44:01;;;;;;;2.10;1.85;;;8.80;99.90;;;;;;10462341;28;20052;-58
2024/01/30 18:49:03;;;;;;;0.10;0.10;;;8.30;99.90;;;;;;10466425;28;20104;-58
2024/01/30 18:54:07;;;;;;;0.10;0.10;;;8.30;99.90;;;;;;10474026;28;20138;-57
2024/01/30 18:59:09;;;;;;;0.10;0.10;;;9.50;99.90;;;;;;10466797;28;20055;-54
2024/01/30 19:04:11;;;;;;;0.10;0.10;;;10.20;99.90;;;;;;10477369;28;20048;-58
2024/01/30 19:09:14;;;;;;;0.10;0.10;;;11.50;99.90;;;;;;10479109;28;20049;-55
2024/01/30 19:14:16;;;;;;;6.03;1.95;;;10.60;99.90;;;;;;10478074;28;20067;-58
2024/01/30 19:19:18;;;;;;;0.10;0.10;;;10.60;99.90;;;;;;10465107;28;20061;-56
2024/01/30 19:24:22;;;;;;;0.22;0.22;;;10.60;99.90;;;;;;10472006;28;20048;-59
2024/01/30 19:29:24;;;;;;;0.75;0.75;;;11.30;99.90;;;;;;10467969;28;20127;-57
2024/01/30 19:34:26;;;;;;;4.28;1.55;;;11.40;99.90;;;;;;10468828;28;20048;-57
2024/01/30 19:39:30;;;;;;;0.07;0.07;;;12.40;99.90;;;;;;10460133;28;20531;-57
2024/01/30 19:44:32;;;;;;;0.10;0.10;;;11.80;99.90;;;;;;10469209;28;20313;-59
2024/01/30 19:49:34;;;;;;;0.03;0.03;;;12.30;99.90;;;;;;10479408;28;20445;-57
2024/01/30 19:54:38;;;;;;;0.13;0.13;;;11.30;99.90;;;;;;10475546;28;20200;-57
2024/01/30 19:59:40;;;;;;;0.10;0.10;;;10.90;99.90;;;;;;10470032;28;20059;-56
2024/01/30 20:04:44;;;;;;;0.70;0.45;;;10.30;99.90;;;;;;10466560;28;20052;-57
2024/01/30 20:09:48;;;;;;;0.10;0.10;;;11.60;99.90;;;;;;10472768;28;21070;-58
2024/01/30 20:14:50;;;;;;;0.28;0.28;;;11.60;99.90;;;;;;10464958;28;20056;-58
2024/01/30 20:19:53;;;;;;;0.10;0.10;;;11.80;99.90;;;;;;10462338;28;20093;-58
2024/01/30 20:24:58;;;;;;;2.58;1.40;;;10.70;99.90;;;;;;10469100;28;20489;-57
2024/01/30 20:30:00;;;;;;;0.10;0.10;;;12.50;99.90;;;;;;10462469;28;20487;-57
2024/01/30 20:35:02;;;;;;;0.00;0.00;;;12.20;99.90;;;;;;10464581;28;20056;-56
2024/01/30 20:40:07;;;;;;;2.33;1.90;;;13.00;99.90;;;;;;10454348;28;20048;-57
2024/01/30 20:45:09;;;;;;;0.10;0.10;;;12.70;99.90;;;;;;10461101;28;20759;-57
2024/01/30 20:50:11;;;;;;;0.63;0.63;;;13.00;99.90;;;;;;10446651;28;20845;-58
2024/01/30 20:55:15;;;;;;;0.10;0.10;;;13.10;99.90;;;;;;10467857;28;20040;-58
2024/01/30 21:00:18;;;;;;;0.10;0.10;;;13.60;99.90;;;;;;10474249;28;20051;-58
2024/01/30 21:05:22;;;;;;;0.10;0.10;;;13.90;99.90;;;;;;10475466;28;20787;-59
2024/01/30 21:10:25;;;;;;;0.10;0.10;;;14.20;99.90;;;;;;10477862;28;20607;-57
2024/01/30 21:15:27;;;;;;;0.52;0.52;;;13.40;99.90;;;;;;10476840;28;20691;-57
2024/01/30 21:20:30;;;;;;;0.67;0.67;;;13.60;99.90;;;;;;10464387;28;20068;-58
2024/01/30 21:25:33;;;;;;;2.03;0.87;;;13.00;99.90;;;;;;10469715;28;20093;-57
2024/01/30 21:30:35;;;;;;;0.30;0.30;;;13.50;99.90;;;;;;10480373;28;20057;-57
2024/01/30 21:35:37;;;;;;;0.63;0.63;;;14.10;99.90;;;;;;10475262;28;20061;-60
2024/01/30 21:40:40;;;;;;;0.00;0.00;;;14.10;99.90;;;;;;10480251;28;20531;-58
2024/01/30 21:45:43;;;;;;;0.13;0.13;;;14.10;99.90;;;;;;10477774;28;20059;-58
2024/01/30 21:50:45;;;;;;;0.10;0.10;;;13.70;99.90;;;;;;10481503;28;20344;-59
2024/01/30 21:55:48;;;;;;;0.00;0.00;;;12.10;99.90;;;;;;10483735;28;20059;-57
2024/01/30 22:00:50;;;;;;;0.20;0.20;;;12.40;99.90;;;;;;10475828;28;20477;-55
2024/01/30 22:05:52;;;;;;;0.77;0.77;;;13.50;99.90;;;;;;10472488;28;20051;-60
2024/01/30 22:10:56;;;;;;;0.77;0.77;;;14.20;99.90;;;;;;10479867;28;20166;-57
2024/01/30 22:15:59;;;;;;;0.73;0.73;;;14.30;99.90;;;;;;10477521;28;20052;-57
2024/01/30 22:21:07;;;;;;;0.10;0.10;;;14.50;99.90;;;;;;10473927;28;23121;-58
2024/01/30 22:26:10;;;;;;;0.80;0.57;;;14.50;99.90;;;;;;10482235;28;20040;-57
2024/01/30 22:31:13;;;;;;;11.98;2.53;;;14.50;99.90;;;;;;10466743;28;20126;-59
2024/01/30 22:36:15;;;;;;;0.85;0.85;;;14.40;99.90;;;;;;10480303;28;20049;-57
2024/01/30 22:41:23;;;;;;;0.52;0.38;;;14.50;99.90;;;;;;10486378;28;20063;-57
2024/01/30 22:46:25;;;;;;;0.10;0.10;;;14.50;99.90;;;;;;10444044;28;20383;-59
2024/01/30 22:51:28;;;;;;;0.30;0.30;;;14.60;99.90;;;;;;10472369;28;20049;-56
2024/01/30 22:56:31;;;;;;;0.10;0.10;;;14.50;99.90;;;;;;10473928;28;20040;-57
2024/01/30 23:01:33;;;;;;;0.10;0.10;;;14.50;99.90;;;;;;10482778;28;20121;-57
2024/01/30 23:06:35;;;;;;;0.10;0.10;;;14.60;99.90;;;;;;10479071;28;23296;-55
2024/01/30 23:11:45;;;;;;;8.50;1.55;;;14.30;99.90;;;;;;10484672;28;20059;-56
2024/01/30 23:16:49;;;;;;;0.03;0.03;;;13.20;99.90;;;;;;10485817;28;20044;-57
2024/01/30 23:21:51;;;;;;;0.10;0.10;;;13.50;99.90;;;;;;10483663;28;20048;-58
2024/01/30 23:26:55;;;;;;;0.10;0.10;;;13.80;99.90;;;;;;10470219;28;20053;-57
2024/01/30 23:31:57;;;;;;;0.63;0.60;;;14.00;99.90;;;;;;10470987;28;20048;-56
2024/01/30 23:36:59;;;;;;;0.00;0.00;;;14.30;99.90;;;;;;10475941;28;20140;-57
2024/01/30 23:42:03;;;;;;;9.00;0.93;;;14.50;99.90;;;;;;10478129;28;20055;-55
2024/01/30 23:47:05;;;;;;;0.20;0.20;;;14.60;99.90;;;;;;10474344;28;20051;-57
2024/01/30 23:52:07;;;;;;;0.77;0.63;;;14.50;99.90;;;;;;10467711;28;20752;-57
2024/01/30 23:57:10;;;;;;;0.00;0.00;;;14.50;99.90;;;;;;10460139;28;20057;-58
